sensor_id;sensor_type;location;lat;lon;timestamp;P1;durP1;ratioP1;P2;durP2;ratioP2
26654;SDS011;14278;50.784;4.630;2023-05-15T00:00:34;11.10;;;8.57;;
26654;SDS011;14278;50.784;4.630;2023-05-15T00:03:01;10.67;;;8.40;;
26654;SDS011;14278;50.784;4.630;2023-05-15T00:05:28;10.90;;;8.17;;
26654;SDS011;14278;50.784;4.630;2023-05-15T00:07:54;10.83;;;8.43;;
26654;SDS011;14278;50.784;4.630;2023-05-15T00:10:19;9.87;;;8.60;;
26654;SDS011;14278;50.784;4.630;2023-05-15T00:12:46;14.07;;;10.17;;
26654;SDS011;14278;50.784;4.630;2023-05-15T00:15:12;12.03;;;9.37;;
26654;SDS011;14278;50.784;4.630;2023-05-15T00:17:38;17.63;;;10.27;;
26654;SDS011;14278;50.784;4.630;2023-05-15T00:20:04;13.57;;;9.83;;
26654;SDS011;14278;50.784;4.630;2023-05-15T00:22:31;12.57;;;10.17;;
26654;SDS011;14278;50.784;4.630;2023-05-15T00:24:57;10.53;;;9.07;;
26654;SDS011;14278;50.784;4.630;2023-05-15T00:27:23;10.57;;;9.03;;
26654;SDS011;14278;50.784;4.630;2023-05-15T00:29:51;9.43;;;8.43;;
26654;SDS011;14278;50.784;4.630;2023-05-15T00:32:16;8.07;;;7.27;;
26654;SDS011;14278;50.784;4.630;2023-05-15T00:34:42;15.50;;;9.70;;
26654;SDS011;14278;50.784;4.630;2023-05-15T00:37:08;13.17;;;9.60;;
26654;SDS011;14278;50.784;4.630;2023-05-15T00:39:35;13.13;;;8.67;;
26654;SDS011;14278;50.784;4.630;2023-05-15T00:42:01;8.37;;;7.13;;
26654;SDS011;14278;50.784;4.630;2023-05-15T00:44:29;8.40;;;7.50;;
26654;SDS011;14278;50.784;4.630;2023-05-15T00:46:56;8.30;;;7.47;;
26654;SDS011;14278;50.784;4.630;2023-05-15T00:49:23;11.60;;;8.57;;
26654;SDS011;14278;50.784;4.630;2023-05-15T00:51:51;12.37;;;9.27;;
26654;SDS011;14278;50.784;4.630;2023-05-15T00:54:18;9.23;;;8.23;;
26654;SDS011;14278;50.784;4.630;2023-05-15T00:56:44;11.57;;;8.67;;
26654;SDS011;14278;50.784;4.630;2023-05-15T00:59:11;12.20;;;8.63;;
26654;SDS011;14278;50.784;4.630;2023-05-15T01:01:38;11.77;;;8.90;;
26654;SDS011;14278;50.784;4.630;2023-05-15T01:04:04;10.37;;;8.43;;
26654;SDS011;14278;50.784;4.630;2023-05-15T01:06:30;11.60;;;9.10;;
26654;SDS011;14278;50.784;4.630;2023-05-15T01:08:57;11.07;;;8.23;;
26654;SDS011;14278;50.784;4.630;2023-05-15T01:11:34;9.23;;;7.70;;
26654;SDS011;14278;50.784;4.630;2023-05-15T01:14:03;12.00;;;9.10;;
26654;SDS011;14278;50.784;4.630;2023-05-15T01:16:30;15.37;;;8.77;;
26654;SDS011;14278;50.784;4.630;2023-05-15T01:18:57;15.17;;;8.93;;
26654;SDS011;14278;50.784;4.630;2023-05-15T01:30:01;14.73;;;9.20;;
26654;SDS011;14278;50.784;4.630;2023-05-15T01:35:15;12.70;;;11.00;;
26654;SDS011;14278;50.784;4.630;2023-05-15T01:37:43;12.67;;;9.93;;
26654;SDS011;14278;50.784;4.630;2023-05-15T01:40:14;13.43;;;9.73;;
26654;SDS011;14278;50.784;4.630;2023-05-15T01:42:45;17.90;;;10.37;;
26654;SDS011;14278;50.784;4.630;2023-05-15T01:45:23;18.90;;;12.83;;
26654;SDS011;14278;50.784;4.630;2023-05-15T01:47:50;24.50;;;11.97;;
26654;SDS011;14278;50.784;4.630;2023-05-15T01:50:18;16.67;;;11.83;;
26654;SDS011;14278;50.784;4.630;2023-05-15T01:52:47;19.63;;;13.67;;
26654;SDS011;14278;50.784;4.630;2023-05-15T01:55:16;17.53;;;12.30;;
26654;SDS011;14278;50.784;4.630;2023-05-15T01:57:45;23.03;;;12.83;;
26654;SDS011;14278;50.784;4.630;2023-05-15T02:00:12;20.90;;;12.97;;
26654;SDS011;14278;50.784;4.630;2023-05-15T02:02:39;18.13;;;13.07;;
26654;SDS011;14278;50.784;4.630;2023-05-15T02:05:07;21.17;;;14.13;;
26654;SDS011;14278;50.784;4.630;2023-05-15T02:07:34;21.67;;;14.30;;
26654;SDS011;14278;50.784;4.630;2023-05-15T02:10:00;21.60;;;14.10;;
26654;SDS011;14278;50.784;4.630;2023-05-15T02:12:27;20.63;;;13.33;;
26654;SDS011;14278;50.784;4.630;2023-05-15T02:14:54;21.07;;;13.30;;
26654;SDS011;14278;50.784;4.630;2023-05-15T02:17:21;18.57;;;12.70;;
26654;SDS011;14278;50.784;4.630;2023-05-15T02:19:48;19.17;;;12.83;;
26654;SDS011;14278;50.784;4.630;2023-05-15T02:22:14;23.83;;;14.20;;
26654;SDS011;14278;50.784;4.630;2023-05-15T02:24:40;19.13;;;12.57;;
26654;SDS011;14278;50.784;4.630;2023-05-15T02:27:16;19.73;;;12.93;;
26654;SDS011;14278;50.784;4.630;2023-05-15T02:30:02;18.93;;;14.40;;
26654;SDS011;14278;50.784;4.630;2023-05-15T02:32:35;15.17;;;12.50;;
26654;SDS011;14278;50.784;4.630;2023-05-15T02:36:04;27.93;;;15.43;;
26654;SDS011;14278;50.784;4.630;2023-05-15T02:38:06;21.57;;;14.50;;
26654;SDS011;14278;50.784;4.630;2023-05-15T02:40:36;22.83;;;15.13;;
26654;SDS011;14278;50.784;4.630;2023-05-15T02:43:04;23.13;;;14.60;;
26654;SDS011;14278;50.784;4.630;2023-05-15T02:45:32;29.60;;;15.27;;
26654;SDS011;14278;50.784;4.630;2023-05-15T02:47:59;20.87;;;13.37;;
26654;SDS011;14278;50.784;4.630;2023-05-15T02:50:26;20.70;;;14.27;;
26654;SDS011;14278;50.784;4.630;2023-05-15T02:53:05;23.40;;;13.63;;
26654;SDS011;14278;50.784;4.630;2023-05-15T02:55:32;30.77;;;14.80;;
26654;SDS011;14278;50.784;4.630;2023-05-15T02:57:58;26.80;;;16.17;;
26654;SDS011;14278;50.784;4.630;2023-05-15T03:00:24;24.40;;;15.77;;
26654;SDS011;14278;50.784;4.630;2023-05-15T03:02:50;32.60;;;16.73;;
26654;SDS011;14278;50.784;4.630;2023-05-15T03:05:17;28.30;;;17.97;;
26654;SDS011;14278;50.784;4.630;2023-05-15T03:07:43;26.57;;;16.40;;
26654;SDS011;14278;50.784;4.630;2023-05-15T03:10:09;26.37;;;16.73;;
26654;SDS011;14278;50.784;4.630;2023-05-15T03:12:35;21.00;;;14.40;;
26654;SDS011;14278;50.784;4.630;2023-05-15T03:15:02;26.17;;;16.53;;
26654;SDS011;14278;50.784;4.630;2023-05-15T03:17:28;21.43;;;16.03;;
26654;SDS011;14278;50.784;4.630;2023-05-15T03:19:54;19.70;;;14.70;;
26654;SDS011;14278;50.784;4.630;2023-05-15T03:22:20;20.03;;;13.97;;
26654;SDS011;14278;50.784;4.630;2023-05-15T03:24:46;29.27;;;15.33;;
26654;SDS011;14278;50.784;4.630;2023-05-15T03:27:13;25.57;;;14.47;;
26654;SDS011;14278;50.784;4.630;2023-05-15T03:29:38;25.53;;;14.87;;
26654;SDS011;14278;50.784;4.630;2023-05-15T03:32:05;21.07;;;13.67;;
26654;SDS011;14278;50.784;4.630;2023-05-15T03:34:30;18.37;;;13.37;;
26654;SDS011;14278;50.784;4.630;2023-05-15T03:36:56;21.73;;;14.97;;
26654;SDS011;14278;50.784;4.630;2023-05-15T03:39:22;27.90;;;15.87;;
26654;SDS011;14278;50.784;4.630;2023-05-15T03:41:48;26.13;;;16.50;;
26654;SDS011;14278;50.784;4.630;2023-05-15T03:44:14;25.47;;;16.80;;
26654;SDS011;14278;50.784;4.630;2023-05-15T03:46:40;24.23;;;16.73;;
26654;SDS011;14278;50.784;4.630;2023-05-15T03:49:06;25.33;;;15.90;;
26654;SDS011;14278;50.784;4.630;2023-05-15T03:51:33;31.50;;;16.10;;
26654;SDS011;14278;50.784;4.630;2023-05-15T03:53:59;23.80;;;16.40;;
26654;SDS011;14278;50.784;4.630;2023-05-15T03:56:25;28.63;;;16.20;;
26654;SDS011;14278;50.784;4.630;2023-05-15T03:58:51;24.37;;;16.23;;
26654;SDS011;14278;50.784;4.630;2023-05-15T04:01:17;29.07;;;18.77;;
26654;SDS011;14278;50.784;4.630;2023-05-15T04:03:43;33.33;;;20.53;;
26654;SDS011;14278;50.784;4.630;2023-05-15T04:06:09;31.97;;;21.10;;
26654;SDS011;14278;50.784;4.630;2023-05-15T04:08:35;38.83;;;24.33;;
26654;SDS011;14278;50.784;4.630;2023-05-15T04:11:01;32.20;;;21.93;;
26654;SDS011;14278;50.784;4.630;2023-05-15T04:13:27;41.47;;;22.77;;
26654;SDS011;14278;50.784;4.630;2023-05-15T04:15:53;40.57;;;24.17;;
26654;SDS011;14278;50.784;4.630;2023-05-15T04:18:20;46.43;;;26.77;;
26654;SDS011;14278;50.784;4.630;2023-05-15T04:20:46;42.60;;;24.97;;
26654;SDS011;14278;50.784;4.630;2023-05-15T04:23:12;34.30;;;22.67;;
26654;SDS011;14278;50.784;4.630;2023-05-15T04:25:37;36.40;;;22.93;;
26654;SDS011;14278;50.784;4.630;2023-05-15T04:28:06;35.47;;;21.63;;
26654;SDS011;14278;50.784;4.630;2023-05-15T04:30:32;40.03;;;21.53;;
26654;SDS011;14278;50.784;4.630;2023-05-15T04:32:58;30.00;;;19.87;;
26654;SDS011;14278;50.784;4.630;2023-05-15T04:35:24;36.77;;;20.63;;
26654;SDS011;14278;50.784;4.630;2023-05-15T04:37:50;36.80;;;20.97;;
26654;SDS011;14278;50.784;4.630;2023-05-15T04:40:17;40.73;;;22.63;;
26654;SDS011;14278;50.784;4.630;2023-05-15T04:42:43;27.17;;;19.50;;
26654;SDS011;14278;50.784;4.630;2023-05-15T04:45:09;37.97;;;21.67;;
26654;SDS011;14278;50.784;4.630;2023-05-15T04:47:35;26.43;;;19.40;;
26654;SDS011;14278;50.784;4.630;2023-05-15T04:50:01;27.70;;;18.77;;
26654;SDS011;14278;50.784;4.630;2023-05-15T04:52:27;22.47;;;17.90;;
26654;SDS011;14278;50.784;4.630;2023-05-15T04:54:53;37.80;;;19.60;;
26654;SDS011;14278;50.784;4.630;2023-05-15T04:57:20;25.07;;;16.60;;
26654;SDS011;14278;50.784;4.630;2023-05-15T04:59:46;24.93;;;17.23;;
26654;SDS011;14278;50.784;4.630;2023-05-15T05:02:11;25.10;;;17.67;;
26654;SDS011;14278;50.784;4.630;2023-05-15T05:04:40;23.43;;;15.10;;
26654;SDS011;14278;50.784;4.630;2023-05-15T05:07:08;22.87;;;16.03;;
26654;SDS011;14278;50.784;4.630;2023-05-15T05:09:34;24.13;;;15.47;;
26654;SDS011;14278;50.784;4.630;2023-05-15T05:11:59;21.73;;;15.43;;
26654;SDS011;14278;50.784;4.630;2023-05-15T05:14:26;26.77;;;15.20;;
26654;SDS011;14278;50.784;4.630;2023-05-15T05:16:52;22.63;;;15.43;;
26654;SDS011;14278;50.784;4.630;2023-05-15T05:19:18;21.63;;;14.30;;
26654;SDS011;14278;50.784;4.630;2023-05-15T05:21:44;24.87;;;14.67;;
26654;SDS011;14278;50.784;4.630;2023-05-15T05:24:10;28.97;;;14.80;;
26654;SDS011;14278;50.784;4.630;2023-05-15T05:26:36;20.47;;;15.37;;
26654;SDS011;14278;50.784;4.630;2023-05-15T05:29:02;20.37;;;14.37;;
26654;SDS011;14278;50.784;4.630;2023-05-15T05:31:28;23.43;;;15.67;;
26654;SDS011;14278;50.784;4.630;2023-05-15T05:33:54;21.97;;;14.90;;
26654;SDS011;14278;50.784;4.630;2023-05-15T05:36:20;24.40;;;13.73;;
26654;SDS011;14278;50.784;4.630;2023-05-15T05:38:45;20.20;;;13.60;;
26654;SDS011;14278;50.784;4.630;2023-05-15T05:41:12;25.27;;;15.47;;
26654;SDS011;14278;50.784;4.630;2023-05-15T05:43:38;26.27;;;14.67;;
26654;SDS011;14278;50.784;4.630;2023-05-15T05:46:04;24.33;;;14.17;;
26654;SDS011;14278;50.784;4.630;2023-05-15T05:48:30;20.53;;;14.30;;
26654;SDS011;14278;50.784;4.630;2023-05-15T05:50:56;21.57;;;15.87;;
26654;SDS011;14278;50.784;4.630;2023-05-15T05:53:23;21.37;;;15.30;;
26654;SDS011;14278;50.784;4.630;2023-05-15T05:55:48;24.50;;;15.13;;
26654;SDS011;14278;50.784;4.630;2023-05-15T05:58:15;23.57;;;14.93;;
26654;SDS011;14278;50.784;4.630;2023-05-15T06:00:41;25.37;;;16.97;;
26654;SDS011;14278;50.784;4.630;2023-05-15T06:03:07;24.10;;;14.87;;
26654;SDS011;14278;50.784;4.630;2023-05-15T06:05:33;23.60;;;15.73;;
26654;SDS011;14278;50.784;4.630;2023-05-15T06:07:59;26.27;;;15.87;;
26654;SDS011;14278;50.784;4.630;2023-05-15T06:10:26;18.20;;;13.70;;
26654;SDS011;14278;50.784;4.630;2023-05-15T06:12:52;19.87;;;14.27;;
26654;SDS011;14278;50.784;4.630;2023-05-15T06:15:18;18.67;;;14.17;;
26654;SDS011;14278;50.784;4.630;2023-05-15T06:17:44;19.90;;;14.17;;
26654;SDS011;14278;50.784;4.630;2023-05-15T06:20:10;20.97;;;13.97;;
26654;SDS011;14278;50.784;4.630;2023-05-15T06:22:37;20.63;;;14.37;;
26654;SDS011;14278;50.784;4.630;2023-05-15T06:25:03;16.13;;;12.13;;
26654;SDS011;14278;50.784;4.630;2023-05-15T06:27:30;26.53;;;12.40;;
26654;SDS011;14278;50.784;4.630;2023-05-15T06:29:57;25.20;;;15.23;;
26654;SDS011;14278;50.784;4.630;2023-05-15T06:32:23;20.23;;;13.27;;
26654;SDS011;14278;50.784;4.630;2023-05-15T06:34:49;18.70;;;13.10;;
26654;SDS011;14278;50.784;4.630;2023-05-15T06:37:15;22.30;;;13.53;;
26654;SDS011;14278;50.784;4.630;2023-05-15T06:39:40;22.47;;;13.43;;
26654;SDS011;14278;50.784;4.630;2023-05-15T06:42:07;23.80;;;14.73;;
26654;SDS011;14278;50.784;4.630;2023-05-15T06:44:33;22.07;;;14.57;;
26654;SDS011;14278;50.784;4.630;2023-05-15T06:47:00;23.03;;;13.27;;
26654;SDS011;14278;50.784;4.630;2023-05-15T06:49:26;17.27;;;12.00;;
26654;SDS011;14278;50.784;4.630;2023-05-15T06:51:52;18.70;;;13.57;;
26654;SDS011;14278;50.784;4.630;2023-05-15T06:54:19;22.70;;;12.20;;
26654;SDS011;14278;50.784;4.630;2023-05-15T06:56:45;19.60;;;13.20;;
26654;SDS011;14278;50.784;4.630;2023-05-15T06:59:11;26.57;;;14.57;;
26654;SDS011;14278;50.784;4.630;2023-05-15T07:01:37;20.17;;;14.10;;
26654;SDS011;14278;50.784;4.630;2023-05-15T07:04:03;28.13;;;13.13;;
26654;SDS011;14278;50.784;4.630;2023-05-15T07:06:30;25.33;;;12.67;;
26654;SDS011;14278;50.784;4.630;2023-05-15T07:08:56;21.23;;;13.13;;
26654;SDS011;14278;50.784;4.630;2023-05-15T07:11:23;21.00;;;12.40;;
26654;SDS011;14278;50.784;4.630;2023-05-15T07:13:50;13.47;;;10.83;;
26654;SDS011;14278;50.784;4.630;2023-05-15T07:16:18;18.63;;;12.00;;
26654;SDS011;14278;50.784;4.630;2023-05-15T07:18:45;18.23;;;11.83;;
26654;SDS011;14278;50.784;4.630;2023-05-15T07:21:10;15.67;;;11.93;;
26654;SDS011;14278;50.784;4.630;2023-05-15T07:23:37;27.77;;;12.30;;
26654;SDS011;14278;50.784;4.630;2023-05-15T07:26:02;17.87;;;12.33;;
26654;SDS011;14278;50.784;4.630;2023-05-15T07:28:28;15.53;;;12.67;;
26654;SDS011;14278;50.784;4.630;2023-05-15T07:30:54;24.00;;;12.93;;
26654;SDS011;14278;50.784;4.630;2023-05-15T07:33:20;18.13;;;11.50;;
26654;SDS011;14278;50.784;4.630;2023-05-15T07:35:46;21.77;;;11.80;;
26654;SDS011;14278;50.784;4.630;2023-05-15T07:38:14;28.23;;;12.67;;
26654;SDS011;14278;50.784;4.630;2023-05-15T07:40:40;14.73;;;11.30;;
26654;SDS011;14278;50.784;4.630;2023-05-15T07:43:07;17.53;;;12.30;;
26654;SDS011;14278;50.784;4.630;2023-05-15T07:45:33;19.87;;;11.70;;
26654;SDS011;14278;50.784;4.630;2023-05-15T07:48:11;14.20;;;11.13;;
26654;SDS011;14278;50.784;4.630;2023-05-15T07:50:41;20.10;;;12.40;;
26654;SDS011;14278;50.784;4.630;2023-05-15T07:53:07;18.17;;;10.87;;
26654;SDS011;14278;50.784;4.630;2023-05-15T07:55:33;20.43;;;10.87;;
26654;SDS011;14278;50.784;4.630;2023-05-15T07:57:59;13.43;;;10.43;;
26654;SDS011;14278;50.784;4.630;2023-05-15T08:00:25;14.87;;;11.00;;
26654;SDS011;14278;50.784;4.630;2023-05-15T08:02:51;15.60;;;10.97;;
26654;SDS011;14278;50.784;4.630;2023-05-15T08:05:17;17.23;;;12.07;;
26654;SDS011;14278;50.784;4.630;2023-05-15T08:07:43;15.03;;;11.43;;
26654;SDS011;14278;50.784;4.630;2023-05-15T08:10:09;22.53;;;12.27;;
26654;SDS011;14278;50.784;4.630;2023-05-15T08:12:35;17.17;;;11.27;;
26654;SDS011;14278;50.784;4.630;2023-05-15T08:15:01;16.47;;;11.53;;
26654;SDS011;14278;50.784;4.630;2023-05-15T08:17:27;13.93;;;10.60;;
26654;SDS011;14278;50.784;4.630;2023-05-15T08:19:54;17.97;;;12.67;;
26654;SDS011;14278;50.784;4.630;2023-05-15T08:22:20;15.90;;;11.57;;
26654;SDS011;14278;50.784;4.630;2023-05-15T08:24:46;17.90;;;10.53;;
26654;SDS011;14278;50.784;4.630;2023-05-15T08:27:12;15.20;;;10.33;;
26654;SDS011;14278;50.784;4.630;2023-05-15T08:29:38;15.40;;;10.40;;
26654;SDS011;14278;50.784;4.630;2023-05-15T08:32:05;15.07;;;9.87;;
26654;SDS011;14278;50.784;4.630;2023-05-15T08:34:34;14.07;;;9.77;;
26654;SDS011;14278;50.784;4.630;2023-05-15T08:37:00;16.27;;;10.25;;
26654;SDS011;14278;50.784;4.630;2023-05-15T08:39:26;13.65;;;10.52;;
26654;SDS011;14278;50.784;4.630;2023-05-15T08:41:57;13.32;;;9.52;;
26654;SDS011;14278;50.784;4.630;2023-05-15T08:44:40;13.77;;;9.93;;
26654;SDS011;14278;50.784;4.630;2023-05-15T08:47:07;12.10;;;9.65;;
26654;SDS011;14278;50.784;4.630;2023-05-15T08:49:46;14.60;;;9.98;;
26654;SDS011;14278;50.784;4.630;2023-05-15T08:52:28;11.30;;;8.25;;
26654;SDS011;14278;50.784;4.630;2023-05-15T08:54:55;14.90;;;10.85;;
26654;SDS011;14278;50.784;4.630;2023-05-15T08:57:23;14.77;;;9.75;;
26654;SDS011;14278;50.784;4.630;2023-05-15T08:59:50;13.98;;;10.32;;
26654;SDS011;14278;50.784;4.630;2023-05-15T09:02:18;14.70;;;10.68;;
26654;SDS011;14278;50.784;4.630;2023-05-15T09:04:44;16.47;;;10.73;;
26654;SDS011;14278;50.784;4.630;2023-05-15T09:07:10;14.37;;;9.93;;
26654;SDS011;14278;50.784;4.630;2023-05-15T09:09:36;18.23;;;10.43;;
26654;SDS011;14278;50.784;4.630;2023-05-15T09:12:04;14.10;;;10.53;;
26654;SDS011;14278;50.784;4.630;2023-05-15T09:14:33;13.10;;;9.53;;
26654;SDS011;14278;50.784;4.630;2023-05-15T09:16:58;13.67;;;9.67;;
26654;SDS011;14278;50.784;4.630;2023-05-15T09:19:24;14.65;;;9.20;;
26654;SDS011;14278;50.784;4.630;2023-05-15T09:21:52;14.50;;;10.20;;
26654;SDS011;14278;50.784;4.630;2023-05-15T09:24:22;20.80;;;10.48;;
26654;SDS011;14278;50.784;4.630;2023-05-15T09:27:07;9.40;;;8.40;;
26654;SDS011;14278;50.784;4.630;2023-05-15T09:29:34;12.57;;;9.65;;
26654;SDS011;14278;50.784;4.630;2023-05-15T09:32:05;12.65;;;9.73;;
26654;SDS011;14278;50.784;4.630;2023-05-15T09:34:33;15.95;;;8.50;;
26654;SDS011;14278;50.784;4.630;2023-05-15T09:37:02;12.18;;;8.60;;
26654;SDS011;14278;50.784;4.630;2023-05-15T09:39:29;9.65;;;7.97;;
26654;SDS011;14278;50.784;4.630;2023-05-15T09:44:34;11.38;;;7.35;;
26654;SDS011;14278;50.784;4.630;2023-05-15T09:47:00;11.32;;;8.95;;
26654;SDS011;14278;50.784;4.630;2023-05-15T09:49:29;11.88;;;8.55;;
26654;SDS011;14278;50.784;4.630;2023-05-15T09:51:59;8.88;;;7.53;;
26654;SDS011;14278;50.784;4.630;2023-05-15T09:54:25;12.93;;;8.38;;
26654;SDS011;14278;50.784;4.630;2023-05-15T09:56:52;14.43;;;9.50;;
26654;SDS011;14278;50.784;4.630;2023-05-15T09:59:19;12.20;;;8.65;;
26654;SDS011;14278;50.784;4.630;2023-05-15T10:01:48;12.77;;;9.20;;
26654;SDS011;14278;50.784;4.630;2023-05-15T10:04:15;10.30;;;8.23;;
26654;SDS011;14278;50.784;4.630;2023-05-15T10:06:42;11.23;;;9.20;;
26654;SDS011;14278;50.784;4.630;2023-05-15T10:09:12;12.77;;;9.43;;
26654;SDS011;14278;50.784;4.630;2023-05-15T10:11:40;17.07;;;9.97;;
26654;SDS011;14278;50.784;4.630;2023-05-15T10:14:08;15.13;;;8.57;;
26654;SDS011;14278;50.784;4.630;2023-05-15T10:16:35;11.90;;;9.25;;
26654;SDS011;14278;50.784;4.630;2023-05-15T10:19:02;13.40;;;9.00;;
26654;SDS011;14278;50.784;4.630;2023-05-15T10:21:34;11.75;;;9.10;;
26654;SDS011;14278;50.784;4.630;2023-05-15T10:24:02;12.13;;;9.07;;
26654;SDS011;14278;50.784;4.630;2023-05-15T10:26:36;11.40;;;7.95;;
26654;SDS011;14278;50.784;4.630;2023-05-15T10:29:04;10.88;;;7.72;;
26654;SDS011;14278;50.784;4.630;2023-05-15T10:31:31;11.93;;;8.93;;
26654;SDS011;14278;50.784;4.630;2023-05-15T10:34:00;11.95;;;7.32;;
26654;SDS011;14278;50.784;4.630;2023-05-15T10:36:27;13.52;;;8.73;;
26654;SDS011;14278;50.784;4.630;2023-05-15T10:38:54;11.20;;;8.48;;
26654;SDS011;14278;50.784;4.630;2023-05-15T10:41:20;10.00;;;8.02;;
26654;SDS011;14278;50.784;4.630;2023-05-15T10:43:47;12.05;;;7.85;;
26654;SDS011;14278;50.784;4.630;2023-05-15T10:46:14;20.58;;;9.52;;
26654;SDS011;14278;50.784;4.630;2023-05-15T10:48:41;13.32;;;8.82;;
26654;SDS011;14278;50.784;4.630;2023-05-15T10:51:14;13.45;;;8.50;;
26654;SDS011;14278;50.784;4.630;2023-05-15T10:53:42;17.50;;;10.48;;
26654;SDS011;14278;50.784;4.630;2023-05-15T10:56:12;12.32;;;7.88;;
26654;SDS011;14278;50.784;4.630;2023-05-15T10:58:43;11.88;;;8.88;;
26654;SDS011;14278;50.784;4.630;2023-05-15T11:01:26;9.10;;;8.00;;
26654;SDS011;14278;50.784;4.630;2023-05-15T11:04:26;16.17;;;8.77;;
26654;SDS011;14278;50.784;4.630;2023-05-15T11:06:47;14.00;;;9.63;;
26654;SDS011;14278;50.784;4.630;2023-05-15T11:14:17;11.80;;;9.50;;
26654;SDS011;14278;50.784;4.630;2023-05-15T11:19:21;15.20;;;9.13;;
26654;SDS011;14278;50.784;4.630;2023-05-15T11:21:55;16.05;;;10.00;;
26654;SDS011;14278;50.784;4.630;2023-05-15T11:24:26;14.32;;;10.15;;
26654;SDS011;14278;50.784;4.630;2023-05-15T11:27:02;17.02;;;9.80;;
26654;SDS011;14278;50.784;4.630;2023-05-15T11:29:29;12.65;;;9.20;;
26654;SDS011;14278;50.784;4.630;2023-05-15T11:31:59;13.07;;;9.80;;
26654;SDS011;14278;50.784;4.630;2023-05-15T11:34:30;13.85;;;9.88;;
26654;SDS011;14278;50.784;4.630;2023-05-15T11:36:58;17.60;;;10.20;;
26654;SDS011;14278;50.784;4.630;2023-05-15T11:39:28;13.30;;;9.87;;
26654;SDS011;14278;50.784;4.630;2023-05-15T11:41:54;19.70;;;9.23;;
26654;SDS011;14278;50.784;4.630;2023-05-15T11:44:23;21.20;;;11.63;;
26654;SDS011;14278;50.784;4.630;2023-05-15T11:46:49;17.52;;;10.82;;
26654;SDS011;14278;50.784;4.630;2023-05-15T11:49:19;14.60;;;10.10;;
26654;SDS011;14278;50.784;4.630;2023-05-15T11:51:46;16.15;;;11.65;;
26654;SDS011;14278;50.784;4.630;2023-05-15T11:54:12;20.97;;;13.00;;
26654;SDS011;14278;50.784;4.630;2023-05-15T11:56:42;20.17;;;13.27;;
26654;SDS011;14278;50.784;4.630;2023-05-15T11:59:09;23.07;;;13.57;;
26654;SDS011;14278;50.784;4.630;2023-05-15T12:01:42;19.37;;;13.30;;
26654;SDS011;14278;50.784;4.630;2023-05-15T12:04:12;15.60;;;11.40;;
26654;SDS011;14278;50.784;4.630;2023-05-15T12:06:40;22.23;;;12.60;;
26654;SDS011;14278;50.784;4.630;2023-05-15T12:09:26;21.53;;;13.03;;
26654;SDS011;14278;50.784;4.630;2023-05-15T12:11:53;24.37;;;14.57;;
26654;SDS011;14278;50.784;4.630;2023-05-15T12:14:27;23.43;;;12.43;;
26654;SDS011;14278;50.784;4.630;2023-05-15T12:16:54;21.87;;;13.83;;
26654;SDS011;14278;50.784;4.630;2023-05-15T12:19:26;20.70;;;13.50;;
26654;SDS011;14278;50.784;4.630;2023-05-15T12:21:52;18.07;;;12.77;;
26654;SDS011;14278;50.784;4.630;2023-05-15T12:24:18;25.90;;;13.40;;
26654;SDS011;14278;50.784;4.630;2023-05-15T12:26:45;17.93;;;13.17;;
26654;SDS011;14278;50.784;4.630;2023-05-15T12:29:12;28.47;;;14.67;;
26654;SDS011;14278;50.784;4.630;2023-05-15T12:31:39;25.40;;;16.37;;
26654;SDS011;14278;50.784;4.630;2023-05-15T12:34:05;26.43;;;16.13;;
26654;SDS011;14278;50.784;4.630;2023-05-15T12:36:31;25.67;;;15.50;;
26654;SDS011;14278;50.784;4.630;2023-05-15T12:38:57;30.87;;;15.63;;
26654;SDS011;14278;50.784;4.630;2023-05-15T12:41:28;35.43;;;15.73;;
26654;SDS011;14278;50.784;4.630;2023-05-15T12:43:55;36.80;;;14.03;;
26654;SDS011;14278;50.784;4.630;2023-05-15T12:46:21;24.70;;;13.37;;
26654;SDS011;14278;50.784;4.630;2023-05-15T12:48:49;28.80;;;13.07;;
26654;SDS011;14278;50.784;4.630;2023-05-15T12:51:16;21.60;;;14.40;;
26654;SDS011;14278;50.784;4.630;2023-05-15T12:53:43;20.07;;;13.53;;
26654;SDS011;14278;50.784;4.630;2023-05-15T12:56:14;35.03;;;16.17;;
26654;SDS011;14278;50.784;4.630;2023-05-15T12:58:40;28.93;;;14.93;;
26654;SDS011;14278;50.784;4.630;2023-05-15T13:01:06;19.07;;;13.57;;
26654;SDS011;14278;50.784;4.630;2023-05-15T13:03:32;23.07;;;13.43;;
26654;SDS011;14278;50.784;4.630;2023-05-15T13:06:00;31.67;;;14.33;;
26654;SDS011;14278;50.784;4.630;2023-05-15T13:08:27;27.20;;;14.87;;
26654;SDS011;14278;50.784;4.630;2023-05-15T13:10:57;23.93;;;13.60;;
26654;SDS011;14278;50.784;4.630;2023-05-15T13:13:27;23.20;;;12.90;;
26654;SDS011;14278;50.784;4.630;2023-05-15T13:16:16;17.83;;;11.97;;
26654;SDS011;14278;50.784;4.630;2023-05-15T13:18:43;19.10;;;10.57;;
26654;SDS011;14278;50.784;4.630;2023-05-15T13:21:09;13.33;;;9.20;;
26654;SDS011;14278;50.784;4.630;2023-05-15T13:23:35;12.73;;;8.43;;
26654;SDS011;14278;50.784;4.630;2023-05-15T13:26:01;12.43;;;7.60;;
26654;SDS011;14278;50.784;4.630;2023-05-15T13:28:27;8.43;;;6.23;;
26654;SDS011;14278;50.784;4.630;2023-05-15T13:30:53;7.20;;;5.47;;
26654;SDS011;14278;50.784;4.630;2023-05-15T13:33:19;8.00;;;5.10;;
26654;SDS011;14278;50.784;4.630;2023-05-15T13:35:45;6.83;;;5.10;;
26654;SDS011;14278;50.784;4.630;2023-05-15T13:38:11;9.33;;;5.10;;
26654;SDS011;14278;50.784;4.630;2023-05-15T13:40:37;7.23;;;4.43;;
26654;SDS011;14278;50.784;4.630;2023-05-15T13:43:03;5.53;;;4.40;;
26654;SDS011;14278;50.784;4.630;2023-05-15T13:45:32;7.83;;;5.43;;
26654;SDS011;14278;50.784;4.630;2023-05-15T13:47:58;9.07;;;4.83;;
26654;SDS011;14278;50.784;4.630;2023-05-15T13:50:24;9.80;;;5.00;;
26654;SDS011;14278;50.784;4.630;2023-05-15T13:52:51;7.53;;;4.43;;
26654;SDS011;14278;50.784;4.630;2023-05-15T13:55:18;11.90;;;4.80;;
26654;SDS011;14278;50.784;4.630;2023-05-15T13:57:44;9.67;;;3.53;;
26654;SDS011;14278;50.784;4.630;2023-05-15T14:00:11;3.57;;;2.60;;
26654;SDS011;14278;50.784;4.630;2023-05-15T14:02:41;2.73;;;2.20;;
26654;SDS011;14278;50.784;4.630;2023-05-15T14:05:08;2.43;;;1.73;;
26654;SDS011;14278;50.784;4.630;2023-05-15T14:07:35;2.07;;;1.70;;
26654;SDS011;14278;50.784;4.630;2023-05-15T14:10:02;1.00;;;0.83;;
26654;SDS011;14278;50.784;4.630;2023-05-15T14:12:28;1.60;;;1.50;;
26654;SDS011;14278;50.784;4.630;2023-05-15T14:14:53;1.30;;;1.20;;
26654;SDS011;14278;50.784;4.630;2023-05-15T14:17:21;2.00;;;1.20;;
26654;SDS011;14278;50.784;4.630;2023-05-15T14:19:47;1.30;;;1.20;;
26654;SDS011;14278;50.784;4.630;2023-05-15T14:22:13;1.10;;;0.80;;
26654;SDS011;14278;50.784;4.630;2023-05-15T14:24:39;1.40;;;0.90;;
26654;SDS011;14278;50.784;4.630;2023-05-15T14:27:05;1.50;;;0.90;;
26654;SDS011;14278;50.784;4.630;2023-05-15T14:29:32;0.70;;;0.70;;
26654;SDS011;14278;50.784;4.630;2023-05-15T14:31:58;5.03;;;1.30;;
26654;SDS011;14278;50.784;4.630;2023-05-15T14:34:24;2.67;;;1.00;;
26654;SDS011;14278;50.784;4.630;2023-05-15T14:36:50;1.40;;;1.17;;
26654;SDS011;14278;50.784;4.630;2023-05-15T14:39:15;0.50;;;0.50;;
26654;SDS011;14278;50.784;4.630;2023-05-15T14:41:43;0.90;;;0.90;;
26654;SDS011;14278;50.784;4.630;2023-05-15T14:44:09;1.20;;;1.10;;
26654;SDS011;14278;50.784;4.630;2023-05-15T14:46:35;2.10;;;1.43;;
26654;SDS011;14278;50.784;4.630;2023-05-15T14:49:02;1.40;;;1.00;;
26654;SDS011;14278;50.784;4.630;2023-05-15T14:51:28;3.47;;;1.10;;